createdAt,value
2019-01-19T20:54:58.620Z,1.53
2019-01-19T20:57:26.910Z,1.15
2019-01-19T20:59:55.156Z,0.78
2019-01-19T21:02:23.495Z,0.65
2019-01-19T21:04:51.754Z,0.47
2019-01-19T21:07:20.357Z,0.37
2019-01-19T21:09:48.740Z,0.28
2019-01-19T21:12:17.525Z,0.18
2019-01-19T21:14:45.767Z,0.15
2019-01-19T21:17:14.064Z,0.09
2019-01-19T21:19:42.311Z,0.03
2019-01-19T21:22:10.564Z,-0.04
2019-01-19T21:24:38.925Z,-0.10
2019-01-19T21:27:07.326Z,-0.12
2019-01-19T21:29:35.622Z,-0.19
2019-01-19T21:32:04.196Z,-0.20
2019-01-19T21:34:32.528Z,-0.25
2019-01-19T21:37:00.773Z,-0.25
2019-01-19T21:39:29.077Z,-0.29
2019-01-19T21:41:57.327Z,-0.30
2019-01-19T21:44:25.629Z,-0.35
2019-01-19T21:46:54.210Z,-0.36
2019-01-19T21:49:22.901Z,-0.39
2019-01-19T21:51:51.199Z,-0.44
2019-01-19T21:54:19.499Z,-0.43
2019-01-19T21:56:47.792Z,-0.44
2019-01-19T21:59:16.049Z,-0.46
2019-01-19T22:01:44.595Z,-0.48
2019-01-19T22:04:13.099Z,-0.50
2019-01-19T22:06:41.460Z,-0.51
2019-01-19T22:09:09.755Z,-0.52
2019-01-19T22:11:38.292Z,-0.51
2019-01-19T22:14:06.548Z,-0.49
2019-01-19T22:16:34.857Z,-0.51
2019-01-19T22:19:04.188Z,-0.55
2019-01-19T22:21:32.736Z,-0.57
2019-01-19T22:24:01.023Z,-0.60
2019-01-19T22:26:29.539Z,-0.68
2019-01-19T22:28:57.947Z,-0.68
2019-01-19T22:31:26.187Z,-0.66
2019-01-19T22:33:54.479Z,-0.69
2019-01-19T22:36:22.729Z,-0.69
2019-01-19T22:38:51.022Z,-0.71
2019-01-19T22:41:19.266Z,-0.74
2019-01-19T22:43:47.531Z,-0.76
2019-01-19T22:46:15.991Z,-0.80
2019-01-19T22:48:44.246Z,-0.83
2019-01-19T22:51:12.549Z,-0.81
2019-01-19T22:53:40.837Z,-0.84
2019-01-19T22:56:09.095Z,-0.83
2019-01-19T22:58:37.763Z,-0.84
2019-01-19T23:01:24.407Z,-0.82
2019-01-19T23:03:52.716Z,-0.89
2019-01-19T23:06:20.976Z,-0.90
2019-01-19T23:08:49.266Z,-0.96
2019-01-19T23:11:17.515Z,-1.00
2019-01-19T23:13:45.803Z,-1.03
2019-01-19T23:16:14.092Z,-1.04
2019-01-19T23:18:42.355Z,-1.03
2019-01-19T23:21:10.624Z,-1.03
2019-01-19T23:23:38.928Z,-1.02
2019-01-19T23:26:07.249Z,-1.03
2019-01-19T23:28:35.545Z,-1.03
2019-01-19T23:31:04.161Z,-1.04
2019-01-19T23:33:32.410Z,-1.07
2019-01-19T23:36:00.700Z,-1.09
2019-01-19T23:38:28.958Z,-1.07
2019-01-19T23:40:57.248Z,-1.11
2019-01-19T23:43:25.495Z,-1.10
2019-01-19T23:45:53.749Z,-1.09
2019-01-19T23:48:22.063Z,-1.10
2019-01-19T23:50:50.342Z,-1.17
2019-01-19T23:53:18.696Z,-1.20
2019-01-19T23:55:46.984Z,-1.19
2019-01-19T23:58:15.247Z,-1.21
